Scroll down
FLIGHT INFORMATION
British Airways

BAW1220

At Arrival Gate

KLAX
 KSFO
DATE: 2019-12-20
GATE: 150
GATE DEPARTURE: 22:43
TAKEOFF: 22:51
DATE: 2019-12-20
GATE:  -
LANDING: 23:46
GATE ARRIVAL: 23:48
FLIGHT DATA
Crew: 
Speed: 
970 kph
Altitude: 
37,003 ft
Stage Length: 
543.2 km
Block Time: 
1.1 hrs
Flight Time: 
0.9 hrs
Fuel Used: 
12,109 kg
Cleared Route: KLAX STOKD SERFR KSFO
TRACK DATA
50,000 ft 1,000 kts
AIRCRAFT INFO AND CUMULATIVE STATS
Aircraft Type: 
B744
Registration: 
SELCAL: 
DGJP
MSN/LN: 
28859 / 1212
Operator: 
Total Flights: 
5
Total Block Time: 
30.6 hrs
Total Flight Time: 
29.2 hrs
Total Fuel Used: 
308,558 kg
DATALINK LOG | Newest first | Current as of: 2022-09-25 18:28:43
LABEL SEQUENCE CONTENT Dn/Up
QD495723:48 52.4▼ Dn
QC461323:46▼ Dn
2U0826KSFO 202156Z COR 01003KT 10SM FEW008 BKN200 13/09 A3017 RMK AO2 SLP215 T01280094▲ Up
2S0826KSFO▼ Dn
5R0807RIZIN 23:02z FL331 SPLNT 23:10z STOKD M0.84 29.9 -17 289/40 RW28R 23:40z▼ Dn
5R0802RIZIN 23:02z FL331 SPLNT 23:10z STOKD M0.84 29.9 -17 289/40 RW28R 23:40z▼ Dn
GA1042ADVANCED GATE ASSIGNMENTS NOT YET AVAILABLE AT THIS AIRPORT▲ Up
GR0726KSFO 23:40 YP/UM 00/01 WCHR/S/C 00/01/00 HI-VAL NO▼ Dn
GA1042ADVANCED GATE ASSIGNMENTS NOT YET AVAILABLE AT THIS AIRPORT▲ Up
GR0726KSFO 23:40 YP/UM 00/01 WCHR/S/C 00/01/00 HI-VAL NO▼ Dn
QB523922:51▼ Dn
QA432722:43 79.1▼ Dn
A33715CLEARED TO KSFO VIA SUMMR2 STOKD SERFR SERFR3. SQUAWK 4520.▲ Up
Q03633[LINK TEST]▼ Dn
Q03712[LINK ACK]▲ Up
QA344622:33 81.5▼ Dn
A32103CLEARED TO KSFO VIA SUMMR2 STOKD SERFR SERFR3. SQUAWK 7061.▲ Up
2U2030KLAX 202153Z VRB06KT 10SM FEW120 SCT160 BKN250 25/M04 A3013 RMK AO2 SLP202 T02501039▲ Up
2S2030KLAX▼ Dn
Q02100[LINK ACK]▲ Up
Q01942[LINK TEST]▼ Dn
Q01851[LINK ACK]▲ Up
Q01454[LINK TEST]▼ Dn
Q05401[LINK ACK]▲ Up
Q00921[LINK TEST]▼ Dn


AIRCRAFT HISTORY
FLIGHT DATE FLIGHT NO. ORIGIN DESTINATION CLEARED ROUTE BLOCK TIME FLIGHT TIME FUEL USED PILOT
2020-10-25BAW0084CYVR EGLL CYVR LYTON 5030N12000W 5230N11000W 54N00 5590N 5580N 5430N07000W YKL HOIST 5650N 5640N 5530N 5420N MALOT GISTI SLANY STU NUMPO OKESI HOFIK BEDEK EGLL9.4 hrs9.1 hrs211,674 lbMatthew Gales
2020-10-24BAW50216EGLL CYVR EGLL UMLAT WOBUN WELIN AKUPA TIMPO ELVOS TNT POL NELSA RIBEL ERGAB SHAPP ABEVI INPIP UTOGU INREV ESKDO IPDOR TLA ERSON NEVIS STN BILLY BARKU RATSU 6520N 6830N 7040N 7160N NADMA 7050N07000W 7080N 6830N09000W 6530N10000W YSM YXJ RORTU YXS CHUBB CASSL RISKE HEIRE ELIDI CYVR9.3 hrs8.9 hrs198,503 lbMatthew Gales
2020-07-11BAW2332KDEN EGLL KDEN NUGGS HIDEF SHOBO LUPTN MRENE EEONS WYNDM HCT OBH MCW KG84K TVC LETAK YUL MIILS ELSIR 5050N 5240N 5330N 5320N MALOT GISTI SLANY STU NUMPO OKESI HOFIK BEDEK EGLL8.6 hrs8.5 hrs199,829 lbMichael Roth
2020-04-26BAW519KSFO KDEN KSFO TRUKN COSMC SYRAH JSICA IBSKI BUMMP SNOEE BOWLL ABASN KTOOO SSKII BGDEE TLRID EPPIC RDDVL CLFFF KIKME RW16L2.2 hrs1.8 hrs43,553 lbChemtrails
2019-12-20BAW1220KLAX KSFO KLAX STOKD SERFR KSFO1.1 hrs0.9 hrs26,696 lb-HIDDEN-